Time;durP1;ratioP1;P1;durP2;ratioP2;P2;SDS_P1;SDS_P2;PMS_P1;PMS_P2;Temp;Humidity;BMP_temperature;BMP_pressure;BME280_temperature;BME280_humidity;BME280_pressure;Samples;Min_cycle;Max_cycle;Signal;HPM_P1;HPM_P2
2022/01/18 00:01:49;;;;;;;;;;;;;;;10.66;56.81;103920.13;5061947;28;19982;-82
2022/01/18 00:04:15;;;;;;;;;;;;;;;10.65;58.74;103919.25;5079797;28;20019;-82
2022/01/18 00:06:42;;;;;;;;;;;;;;;10.59;60.20;103920.13;5062868;28;20358;-82
2022/01/18 00:09:08;;;;;;;;;;;;;;;10.74;59.32;103918.38;5063914;28;19916;-81
2022/01/18 00:11:41;;;;;;;;;;;;;;;10.71;59.74;103918.38;5063466;28;19917;-82
2022/01/18 00:14:13;;;;;;;;;;;;;;;10.25;61.43;103936.28;5080760;28;19967;-82
2022/01/18 00:17:00;;;;;;;;;;;;;;;10.64;60.96;103929.19;5082059;28;19916;-82
2022/01/18 00:19:24;;;;;;;;;;;;;;;10.91;59.51;103940.94;5080493;28;20346;-81
2022/01/18 00:22:05;;;;;;;;;;;;;;;11.07;58.50;103932.84;5080636;28;19939;-80
2022/01/18 00:24:31;;;;;;;;;;;;;;;11.07;58.28;103935.53;5063899;28;19921;-81
2022/01/18 00:26:57;;;;;;;;;;;;;;;10.89;59.08;103944.56;5064143;28;19939;-82
2022/01/18 00:29:24;;;;;;;;;;;;;;;10.76;60.15;103946.34;5081515;28;19916;-82
2022/01/18 00:39:14;;;;;;;;;;;;;;;10.57;63.21;103938.19;5080363;28;20285;-82
2022/01/18 00:41:40;;;;;;;;;;;;;;;10.47;63.24;103947.19;5062777;28;20007;-82
2022/01/18 00:44:06;;;;;;;;;;;;;;;10.43;63.64;103943.56;5063753;28;19923;-82
2022/01/18 00:46:32;;;;;;;;;;;;;;;10.38;63.25;103948.06;5063866;28;19920;-83
2022/01/18 00:49:00;;;;;;;;;;;;;;;10.58;62.81;103955.31;5080176;28;19940;-83
2022/01/18 00:51:26;;;;;;;;;;;;;;;10.74;61.56;103950.84;5062028;28;20061;-83
2022/01/18 00:53:51;;;;;;;;;;;;;;;10.96;60.75;103952.69;5061886;28;19963;-82
2022/01/18 00:56:26;;;;;;;;;;;;;;;11.06;59.83;103948.16;5079470;28;19963;-82
2022/01/18 00:58:52;;;;;;;;;;;;;;;11.15;59.32;103944.56;5060686;28;19920;-82
2022/01/18 01:01:19;;;;;;;;;;;;;;;10.82;60.04;103947.28;5059784;28;19977;-82
2022/01/18 01:03:44;;;;;;;;;;;;;;;10.75;60.74;103948.16;5060450;28;19916;-82
2022/01/18 01:06:10;;;;;;;;;;;;;;;10.82;60.80;103940.94;5060520;28;19970;-83
2022/01/18 01:08:36;;;;;;;;;;;;;;;10.80;60.57;103931.91;5061179;28;19946;-82
2022/01/18 01:11:03;;;;;;;;;;;;;;;10.63;62.05;103932.78;5061781;28;19917;-83
2022/01/18 01:13:30;;;;;;;;;;;;;;;10.40;63.81;103937.22;5061059;28;19948;-82
2022/01/18 01:19:06;;;;;;;;;;;;;;;10.76;62.14;103938.22;5079369;28;19939;-82
2022/01/18 01:33:00;;;;;;;;;;;;;;;10.97;58.80;103946.34;5078542;28;19924;-81
2022/01/18 01:35:29;;;;;;;;;;;;;;;10.96;59.66;103936.44;5077552;28;19923;-81
2022/01/18 01:45:35;;;;;;;;;;;;;;;10.80;57.95;103935.50;5078918;28;19921;-82
2022/01/18 01:48:01;;;;;;;;;;;;;;;10.70;58.06;103932.78;5060896;28;19978;-82
2022/01/18 01:50:39;;;;;;;;;;;;;;;10.70;57.40;103938.22;5078388;28;19916;-83
2022/01/18 01:53:04;;;;;;;;;;;;;;;10.72;57.76;103930.97;5060128;28;19982;-82
2022/01/18 01:55:29;;;;;;;;;;;;;;;10.64;57.17;103939.09;5078634;28;19916;-81
2022/01/18 01:57:54;;;;;;;;;;;;;;;10.60;57.46;103943.59;5060289;28;19923;-82
2022/01/18 02:00:20;;;;;;;;;;;;;;;10.64;57.08;103955.34;5060025;28;20003;-82
2022/01/18 02:02:46;;;;;;;;;;;;;;;10.61;57.27;103947.22;5078900;28;20423;-82
2022/01/18 02:05:12;;;;;;;;;;;;;;;10.60;57.21;103946.31;5077296;28;19920;-81
2022/01/18 02:07:37;;;;;;;;;;;;;;;10.80;56.81;103946.34;5060174;28;19916;-82
2022/01/18 02:10:03;;;;;;;;;;;;;;;10.78;56.79;103940.03;5060324;28;19916;-82
2022/01/18 02:12:29;;;;;;;;;;;;;;;10.66;56.79;103940.03;5078123;28;19924;-82
2022/01/18 02:14:58;;;;;;;;;;;;;;;10.56;57.06;103935.47;5078058;28;19916;-82
2022/01/18 02:22:53;;;;;;;;;;;;;;;10.45;57.15;103935.47;5078598;28;19993;-83
2022/01/18 02:25:18;;;;;;;;;;;;;;;10.38;57.24;103939.94;5059598;28;20395;-82
2022/01/18 02:27:44;;;;;;;;;;;;;;;10.38;56.87;103939.94;5060394;28;19923;-83
2022/01/18 02:30:09;;;;;;;;;;;;;;;10.51;57.04;103932.75;5059973;28;20003;-84
2022/01/18 02:32:35;;;;;;;;;;;;;;;10.32;57.20;103937.19;5060666;28;19939;-81
2022/01/18 02:35:00;;;;;;;;;;;;;;;10.42;56.69;103932.75;5060016;28;19927;-82
2022/01/18 02:37:25;;;;;;;;;;;;;;;10.32;56.53;103926.34;5077373;28;20374;-81
2022/01/18 02:39:51;;;;;;;;;;;;;;;10.45;56.21;103930.94;5076727;28;20729;-82
2022/01/18 02:42:20;;;;;;;;;;;;;;;10.22;57.11;103925.44;5076403;28;19917;-82
2022/01/18 02:44:46;;;;;;;;;;;;;;;10.23;56.96;103931.75;5059742;28;19926;-83
2022/01/18 02:47:11;;;;;;;;;;;;;;;10.20;56.75;103937.13;5080145;28;19917;-83
2022/01/18 02:49:36;;;;;;;;;;;;;;;10.25;57.13;103929.94;5080661;28;19955;-82
2022/01/18 02:52:03;;;;;;;;;;;;;;;10.10;57.63;103937.13;5080866;28;19969;-80
2022/01/18 02:54:28;;;;;;;;;;;;;;;9.85;58.08;103941.50;5080778;28;20450;-82
2022/01/18 02:56:59;;;;;;;;;;;;;;;9.67;58.55;103936.88;5080313;28;19940;-83
2022/01/18 02:59:43;;;;;;;;;;;;;;;9.97;57.51;103928.94;5080073;28;19927;-83
2022/01/18 03:05:06;;;;;;;;;;;;;;;10.05;57.70;103930.75;5081817;28;19943;-82
2022/01/18 03:07:32;;;;;;;;;;;;;;;10.00;57.88;103926.25;5080656;28;19921;-83
2022/01/18 03:09:57;;;;;;;;;;;;;;;10.27;57.13;103920.94;5080417;28;19959;-82
2022/01/18 03:12:22;;;;;;;;;;;;;;;10.17;56.99;103926.31;5062781;28;20381;-82
2022/01/18 03:14:47;;;;;;;;;;;;;;;10.09;57.01;103924.47;5062342;28;20358;-82
2022/01/18 03:17:13;;;;;;;;;;;;;;;10.14;57.27;103929.00;5062531;28;19916;-81
2022/01/18 03:19:38;;;;;;;;;;;;;;;10.08;57.54;103929.88;5080119;28;19923;-81
2022/01/18 03:22:04;;;;;;;;;;;;;;;9.99;58.14;103924.44;5079932;28;19919;-81
2022/01/18 03:29:38;;;;;;;;;;;;;;;10.18;57.98;103936.25;5079843;28;20381;-81
2022/01/18 03:32:04;;;;;;;;;;;;;;;10.33;57.78;103929.97;5061893;28;19917;-83
2022/01/18 03:34:29;;;;;;;;;;;;;;;10.07;58.76;103930.75;5062189;28;19969;-81
2022/01/18 03:36:54;;;;;;;;;;;;;;;10.15;59.02;103936.22;5062219;28;19916;-82
2022/01/18 03:39:20;;;;;;;;;;;;;;;10.32;58.30;103941.69;5062352;28;20359;-81
2022/01/18 03:41:52;;;;;;;;;;;;;;;10.16;58.85;103941.66;5061738;28;19916;-81
2022/01/18 03:44:18;;;;;;;;;;;;;;;10.31;57.96;103939.88;5061886;28;19917;-81
2022/01/18 03:46:43;;;;;;;;;;;;;;;10.31;57.43;103942.59;5061130;28;19917;-81
2022/01/18 03:49:09;;;;;;;;;;;;;;;10.37;57.64;103939.94;5062013;28;20361;-81
2022/01/18 03:51:34;;;;;;;;;;;;;;;10.34;57.47;103940.84;5062150;28;20404;-81
2022/01/18 03:53:59;;;;;;;;;;;;;;;10.13;58.61;103936.22;5062391;28;20286;-82
2022/01/18 03:56:25;;;;;;;;;;;;;;;10.32;58.15;103937.19;5079551;28;20393;-81
2022/01/18 03:58:50;;;;;;;;;;;;;;;10.26;58.05;103947.97;5079913;28;20007;-81
2022/01/18 04:01:15;;;;;;;;;;;;;;;10.36;57.72;103941.75;5061800;28;19954;-81
2022/01/18 04:03:40;;;;;;;;;;;;;;;10.34;57.64;103939.91;5060344;28;19990;-81
2022/01/18 04:06:07;;;;;;;;;;;;;;;10.34;57.63;103942.63;5061390;28;19916;-82
2022/01/18 04:08:32;;;;;;;;;;;;;;;10.24;57.62;103947.09;5079707;28;19927;-81
2022/01/18 04:10:57;;;;;;;;;;;;;;;10.39;57.35;103951.69;5061370;28;19999;-81
2022/01/18 04:13:23;;;;;;;;;;;;;;;10.91;55.80;103949.06;5079072;28;19943;-83
2022/01/18 04:15:48;;;;;;;;;;;;;;;10.96;55.44;103955.41;5061397;28;19916;-82
2022/01/18 04:28:57;;;;;;;;;;;;;;;10.59;56.79;103973.38;5079242;28;19917;-81
2022/01/18 04:31:23;;;;;;;;;;;;;;;10.86;55.70;103966.22;5060315;28;20382;-81
2022/01/18 04:33:49;;;;;;;;;;;;;;;10.94;55.26;103964.41;5077853;28;19922;-81
2022/01/18 04:36:14;;;;;;;;;;;;;;;10.91;54.84;103964.41;5060754;28;19970;-82
2022/01/18 04:38:40;;;;;;;;;;;;;;;10.12;57.83;103969.56;5078941;28;20275;-82
2022/01/18 04:41:08;;;;;;;;;;;;;;;9.92;58.93;103973.09;5060925;28;19916;-82
2022/01/18 04:43:50;;;;;;;;;;;;;;;9.96;58.37;103978.50;5079831;28;19923;-82
2022/01/18 04:48:59;;;;;;;;;;;;;;;9.43;59.75;103970.06;5080052;28;20334;-81
2022/01/18 04:51:41;;;;;;;;;;;;;;;9.58;59.27;103972.88;5116758;27;19969;-82
2022/01/18 04:54:08;;;;;;;;;;;;;;;9.56;59.43;103961.16;5115640;28;19920;-81
2022/01/18 04:58:59;;;;;;;;;;;;;;;9.42;59.25;103967.34;5115908;28;19923;-82
2022/01/18 05:01:25;;;;;;;;;;;;;;;9.60;58.15;103967.47;5115261;28;19916;-82
2022/01/18 05:03:50;;;;;;;;;;;;;;;9.52;58.76;103969.22;5114374;28;19916;-81
2022/01/18 05:06:17;;;;;;;;;;;;;;;9.29;59.28;103966.38;5115861;28;19916;-82
2022/01/18 05:08:43;;;;;;;;;;;;;;;9.03;59.92;103975.16;5115099;28;19995;-83
2022/01/18 05:11:11;;;;;;;;;;;;;;;8.91;60.77;103978.63;5115692;28;20435;-83
2022/01/18 05:19:02;;;;;;;;;;;;;;;8.50;62.48;103973.72;5117434;28;19962;-81
2022/01/18 05:21:33;;;;;;;;;;;;;;;8.72;62.25;103972.13;5114923;28;19987;-82
2022/01/18 05:23:58;;;;;;;;;;;;;;;8.59;62.21;103970.19;5149006;27;19916;-82
2022/01/18 05:26:24;;;;;;;;;;;;;;;8.55;62.46;103963.84;5113584;28;20408;-82
2022/01/18 05:28:50;;;;;;;;;;;;;;;8.85;61.30;103970.47;5115071;28;19923;-81
2022/01/18 05:31:15;;;;;;;;;;;;;;;9.09;60.05;103963.47;5114811;28;19923;-81
2022/01/18 05:33:42;;;;;;;;;;;;;;;8.72;61.23;103964.03;5116017;28;19916;-82
2022/01/18 05:36:08;;;;;;;;;;;;;;;8.42;62.07;103970.84;5115812;28;19916;-83
2022/01/18 05:38:33;;;;;;;;;;;;;;;8.34;62.75;103973.47;5115118;28;19927;-82
2022/01/18 05:40:59;;;;;;;;;;;;;;;8.37;63.20;103966.31;5117655;28;19916;-83
2022/01/18 05:43:24;;;;;;;;;;;;;;;8.21;62.88;103971.50;5116711;28;19966;-84
2022/01/18 05:45:50;;;;;;;;;;;;;;;8.59;61.54;103978.28;5116145;28;20358;-83
2022/01/18 05:48:15;;;;;;;;;;;;;;;8.95;59.77;103971.44;5114868;28;20007;-83
2022/01/18 05:50:40;;;;;;;;;;;;;;;8.99;59.41;103976.91;5116392;28;20335;-84
2022/01/18 05:53:06;;;;;;;;;;;;;;;8.96;58.70;103973.28;5117994;28;19916;-82
2022/01/18 05:55:31;;;;;;;;;;;;;;;8.71;59.98;103974.81;5150613;27;19916;-82
2022/01/18 05:57:56;;;;;;;;;;;;;;;8.45;60.77;103978.13;5115594;28;19979;-83
2022/01/18 06:00:23;;;;;;;;;;;;;;;8.64;60.48;103977.44;5115418;28;19942;-84
2022/01/18 06:08:04;;;;;;;;;;;;;;;9.05;58.89;103968.84;5104151;28;19946;-82
2022/01/18 06:10:30;;;;;;;;;;;;;;;9.18;57.73;103966.28;5101364;28;19916;-82
2022/01/18 06:12:55;;;;;;;;;;;;;;;9.03;58.20;103958.94;5103572;28;20373;-83
2022/01/18 06:15:20;;;;;;;;;;;;;;;8.74;59.08;103962.28;5134675;27;20007;-82
2022/01/18 06:17:46;;;;;;;;;;;;;;;8.68;59.06;103957.72;5100458;28;19916;-82
2022/01/18 06:20:11;;;;;;;;;;;;;;;8.70;58.90;103960.41;5100421;28;19923;-84
2022/01/18 06:22:37;;;;;;;;;;;;;;;8.81;58.11;103958.72;5100747;28;19919;-81
2022/01/18 06:25:03;;;;;;;;;;;;;;;8.92;58.50;103960.63;5134299;27;20016;-81
2022/01/18 06:27:28;;;;;;;;;;;;;;;8.59;58.95;103963.00;5098767;28;19920;-83
2022/01/18 06:29:55;;;;;;;;;;;;;;;8.92;58.07;103966.91;5132577;27;19982;-84
2022/01/18 06:32:20;;;;;;;;;;;;;;;8.79;58.53;103962.31;5132212;27;19916;-82
2022/01/18 06:34:46;;;;;;;;;;;;;;;8.14;60.89;103967.84;5098532;28;20002;-84
2022/01/18 06:37:11;;;;;;;;;;;;;;;8.21;60.89;103970.59;5098828;28;19916;-86
2022/01/18 06:39:37;;;;;;;;;;;;;;;8.01;61.26;103971.25;5098889;28;19921;-85
2022/01/18 06:42:03;;;;;;;;;;;;;;;7.81;63.37;103971.88;5099864;28;19916;-83
2022/01/18 06:44:28;;;;;;;;;;;;;;;7.42;64.34;103970.38;5098099;28;19916;-82
2022/01/18 06:46:53;;;;;;;;;;;;;;;7.68;64.77;103977.97;5099901;28;19912;-83
2022/01/18 06:49:19;;;;;;;;;;;;;;;7.15;67.57;103976.22;5096746;28;19916;-82
2022/01/18 06:51:44;;;;;;;;;;;;;;;7.07;68.04;103975.19;5098296;28;19916;-82
2022/01/18 06:54:17;;;;;;;;;;;;;;;6.57;71.24;103985.03;5098566;28;19916;-84
2022/01/18 06:56:45;;;;;;;;;;;;;;;7.12;69.45;103968.09;5131683;27;19949;-83
2022/01/18 06:59:11;;;;;;;;;;;;;;;6.95;69.33;103964.22;5097635;28;19916;-85
2022/01/18 07:01:36;;;;;;;;;;;;;;;7.39;68.10;103969.44;5098912;28;20326;-82
2022/01/18 07:04:01;;;;;;;;;;;;;;;7.22;68.89;103977.25;5097608;28;19920;-83
2022/01/18 07:06:27;;;;;;;;;;;;;;;7.15;69.45;103978.03;5095633;28;19971;-81
2022/01/18 07:08:52;;;;;;;;;;;;;;;7.31;68.88;103979.16;5096767;28;19947;-81
2022/01/18 07:11:17;;;;;;;;;;;;;;;7.34;69.15;103985.53;5127878;27;20281;-81
2022/01/18 07:13:42;;;;;;;;;;;;;;;7.59;68.72;103988.59;5126884;27;20010;-82
2022/01/18 07:16:08;;;;;;;;;;;;;;;7.22;69.24;103983.53;5093268;28;19999;-82
2022/01/18 07:18:33;;;;;;;;;;;;;;;7.62;68.64;103983.25;5094082;28;19969;-81
2022/01/18 07:20:58;;;;;;;;;;;;;;;7.87;68.85;103981.84;5129866;27;19932;-83
2022/01/18 07:23:24;;;;;;;;;;;;;;;8.21;67.12;103982.28;5131003;27;19916;-82
2022/01/18 07:25:49;;;;;;;;;;;;;;;7.97;67.49;103990.94;5096167;28;19923;-82
2022/01/18 07:28:15;;;;;;;;;;;;;;;8.16;67.02;103984.94;5094762;28;19923;-83
2022/01/18 07:30:41;;;;;;;;;;;;;;;7.77;68.49;103991.56;5095743;28;19938;-82
2022/01/18 07:33:06;;;;;;;;;;;;;;;7.97;68.54;103989.19;5096612;28;19992;-83
2022/01/18 07:35:34;;;;;;;;;;;;;;;8.00;68.30;103993.69;5096115;28;19920;-83
2022/01/18 07:38:00;;;;;;;;;;;;;;;7.86;69.74;103988.09;5095399;28;19983;-83
2022/01/18 07:40:26;;;;;;;;;;;;;;;8.01;68.37;103995.50;5129895;27;19955;-81
2022/01/18 07:42:51;;;;;;;;;;;;;;;7.85;70.21;103999.81;5094597;28;20392;-83
2022/01/18 07:45:16;;;;;;;;;;;;;;;7.89;70.27;103996.25;5096388;28;19920;-82
2022/01/18 07:47:42;;;;;;;;;;;;;;;8.07;69.21;103995.59;5097100;28;20397;-83
2022/01/18 07:50:07;;;;;;;;;;;;;;;7.91;69.95;104004.34;5095495;28;20327;-82
2022/01/18 07:52:35;;;;;;;;;;;;;;;8.03;70.36;104004.56;5095479;28;20357;-82
2022/01/18 07:55:01;;;;;;;;;;;;;;;7.42;72.78;104005.41;5095310;28;19919;-81
2022/01/18 07:57:26;;;;;;;;;;;;;;;7.83;71.50;104014.13;5095575;28;19916;-82
2022/01/18 07:59:51;;;;;;;;;;;;;;;8.28;69.90;104011.16;5095620;28;19964;-83
2022/01/18 08:02:16;;;;;;;;;;;;;;;8.41;70.72;103998.75;5096741;28;20067;-83
2022/01/18 08:04:43;;;;;;;;;;;;;;;8.50;68.84;104000.69;5095073;28;19920;-83
2022/01/18 08:07:08;;;;;;;;;;;;;;;7.61;72.71;104005.72;5093333;28;19932;-79
2022/01/18 08:09:33;;;;;;;;;;;;;;;8.07;71.09;104010.88;5096061;28;19938;-79
2022/01/18 08:11:59;;;;;;;;;;;;;;;8.04;71.82;104008.13;5096861;28;19916;-80
2022/01/18 08:14:26;;;;;;;;;;;;;;;8.23;71.81;104006.56;5095672;28;19923;-80
2022/01/18 08:17:04;;;;;;;;;;;;;;;7.93;72.24;104008.88;5094904;28;19916;-80
2022/01/18 08:19:30;;;;;;;;;;;;;;;7.78;74.25;104012.25;5095385;28;19932;-81
2022/01/18 08:21:56;;;;;;;;;;;;;;;8.18;72.32;104008.31;5095568;28;19919;-80
2022/01/18 08:24:21;;;;;;;;;;;;;;;8.09;72.87;104006.41;5095676;28;19916;-82
2022/01/18 08:26:47;;;;;;;;;;;;;;;7.97;73.00;104009.81;5096407;28;20077;-81
2022/01/18 08:29:12;;;;;;;;;;;;;;;8.02;73.89;104007.19;5096790;28;19962;-81
2022/01/18 08:31:38;;;;;;;;;;;;;;;7.88;74.30;104013.31;5096614;28;20267;-81
2022/01/18 08:34:03;;;;;;;;;;;;;;;7.91;74.11;104010.66;5096045;28;19956;-81
2022/01/18 08:36:28;;;;;;;;;;;;;;;7.94;74.57;104010.72;5095715;28;20300;-82
2022/01/18 08:38:53;;;;;;;;;;;;;;;8.36;73.30;104003.16;5095141;28;19999;-82
2022/01/18 08:41:19;;;;;;;;;;;;;;;8.37;73.36;104010.38;5095820;28;19920;-81
2022/01/18 08:43:44;;;;;;;;;;;;;;;8.25;72.15;104015.63;5095907;28;19916;-81
2022/01/18 08:46:10;;;;;;;;;;;;;;;8.38;72.47;104019.38;5095089;28;19937;-80
2022/01/18 08:48:36;;;;;;;;;;;;;;;7.97;73.77;104028.69;5095659;28;20376;-81
2022/01/18 08:51:02;;;;;;;;;;;;;;;8.36;73.15;104030.13;5094014;28;19952;-82
2022/01/18 08:53:27;;;;;;;;;;;;;;;8.09;74.29;104030.66;5095955;28;19923;-83
2022/01/18 08:55:53;;;;;;;;;;;;;;;8.49;73.90;104032.13;5096270;28;20028;-82
2022/01/18 08:58:18;;;;;;;;;;;;;;;8.71;71.99;104039.59;5096430;28;19916;-83
2022/01/18 09:00:43;;;;;;;;;;;;;;;8.50;71.51;104028.56;5096251;28;19916;-83
2022/01/18 09:03:09;;;;;;;;;;;;;;;7.74;77.21;104037.34;5094382;28;19942;-82
2022/01/18 09:05:37;;;;;;;;;;;;;;;8.37;74.34;104026.56;5094303;28;19916;-80
2022/01/18 09:08:05;;;;;;;;;;;;;;;8.43;73.49;104029.34;5094492;28;19968;-83
2022/01/18 09:10:31;;;;;;;;;;;;;;;8.46;73.13;104026.72;5096599;28;19916;-81
2022/01/18 09:12:56;;;;;;;;;;;;;;;8.12;74.80;104030.72;5095752;28;20540;-81
2022/01/18 09:15:22;;;;;;;;;;;;;;;8.23;74.23;104022.75;5094927;28;19919;-82
2022/01/18 09:17:47;;;;;;;;;;;;;;;9.00;72.83;104031.84;5096097;28;20362;-82
2022/01/18 09:20:13;;;;;;;;;;;;;;;8.64;72.53;104025.13;5094360;28;20282;-80
2022/01/18 09:22:41;;;;;;;;;;;;;;;8.98;71.59;104030.88;5096117;28;19958;-81
2022/01/18 09:25:08;;;;;;;;;;;;;;;8.46;74.37;104037.50;5107602;28;19937;-84
2022/01/18 09:27:33;;;;;;;;;;;;;;;8.80;72.78;104032.53;5116213;28;19959;-83
2022/01/18 09:29:59;;;;;;;;;;;;;;;8.65;73.05;104027.84;5117222;28;19923;-83
2022/01/18 09:32:24;;;;;;;;;;;;;;;8.33;74.42;104031.03;5116329;28;19976;-83
2022/01/18 09:34:50;;;;;;;;;;;;;;;8.21;74.78;104024.53;5116452;28;19912;-81
2022/01/18 09:37:15;;;;;;;;;;;;;;;8.69;74.05;104028.78;5118675;28;19998;-80
2022/01/18 09:39:40;;;;;;;;;;;;;;;8.62;73.48;104032.28;5118924;28;19919;-79
2022/01/18 09:42:05;;;;;;;;;;;;;;;8.52;73.58;104032.19;5119866;28;19916;-82
2022/01/18 09:44:31;;;;;;;;;;;;;;;8.78;72.96;104025.28;5121032;28;19926;-81
2022/01/18 09:46:56;;;;;;;;;;;;;;;8.58;73.77;104035.84;5119975;28;20380;-81
2022/01/18 09:49:24;;;;;;;;;;;;;;;7.99;75.64;104027.84;5119227;28;19968;-83
2022/01/18 09:51:49;;;;;;;;;;;;;;;8.22;75.97;104038.06;5119420;28;19923;-82
2022/01/18 09:54:15;;;;;;;;;;;;;;;8.57;74.53;104039.44;5120584;28;19916;-79
2022/01/18 09:56:40;;;;;;;;;;;;;;;8.30;76.66;104032.75;5117885;28;19976;-81
2022/01/18 09:59:06;;;;;;;;;;;;;;;8.39;75.82;104040.97;5119158;28;20014;-81
2022/01/18 10:01:32;;;;;;;;;;;;;;;8.51;76.95;104040.25;5120077;28;19916;-83
2022/01/18 10:04:13;;;;;;;;;;;;;;;8.76;74.70;104044.16;5120133;28;19968;-82
2022/01/18 10:06:39;;;;;;;;;;;;;;;8.39;77.15;104048.16;5119993;28;20361;-82
2022/01/18 10:09:09;;;;;;;;;;;;;;;8.41;78.09;104039.22;5119642;28;19915;-82
2022/01/18 10:11:35;;;;;;;;;;;;;;;9.24;74.51;104033.88;5119916;28;19937;-82
2022/01/18 10:14:00;;;;;;;;;;;;;;;9.28;73.66;104030.28;5119210;28;19916;-82
2022/01/18 10:16:25;;;;;;;;;;;;;;;9.05;74.45;104032.78;5116508;28;19918;-80
2022/01/18 10:18:53;;;;;;;;;;;;;;;9.39;74.08;104039.41;5119305;28;19916;-83
2022/01/18 10:21:25;;;;;;;;;;;;;;;9.38;74.80;104036.69;5119036;28;19920;-82
2022/01/18 10:23:51;;;;;;;;;;;;;;;9.76;73.59;104027.97;5119138;28;20410;-81
2022/01/18 10:26:18;;;;;;;;;;;;;;;9.18;75.27;104029.31;5120346;28;19951;-81
2022/01/18 10:28:44;;;;;;;;;;;;;;;8.98;76.42;104031.81;5119036;28;20368;-83
2022/01/18 10:31:25;;;;;;;;;;;;;;;9.02;76.24;104032.75;5119262;28;19923;-84
2022/01/18 10:34:11;;;;;;;;;;;;;;;9.94;74.00;104033.50;5092669;28;19905;-82
2022/01/18 10:36:49;;;;;;;;;;;;;;;9.03;75.13;104031.84;5095642;28;19960;-83
2022/01/18 10:39:19;;;;;;;;;;;;;;;9.13;76.98;104020.22;5098492;28;19977;-85
2022/01/18 10:41:45;;;;;;;;;;;;;;;9.48;75.73;104030.47;5099310;28;19920;-81
2022/01/18 10:44:13;;;;;;;;;;;;;;;9.66;74.95;104021.59;5097134;28;19923;-83
2022/01/18 10:46:38;;;;;;;;;;;;;;;9.58;73.73;104024.22;5097910;28;19969;-81
2022/01/18 10:49:03;;;;;;;;;;;;;;;10.03;72.78;104026.34;5095610;28;19916;-81
2022/01/18 10:51:29;;;;;;;;;;;;;;;9.58;75.08;104032.31;5096134;28;20309;-81
2022/01/18 10:53:58;;;;;;;;;;;;;;;9.74;74.11;104030.66;5096887;28;20366;-83
2022/01/18 10:56:24;;;;;;;;;;;;;;;10.13;73.57;104033.63;5097608;28;19916;-83
2022/01/18 10:58:54;;;;;;;;;;;;;;;9.81;73.35;104034.28;5097070;28;19916;-82
2022/01/18 11:01:20;;;;;;;;;;;;;;;9.75;74.74;104026.16;5097866;28;19917;-81
2022/01/18 11:04:05;;;;;;;;;;;;;;;9.48;76.23;104030.47;5095883;28;19970;-82
2022/01/18 11:06:30;;;;;;;;;;;;;;;9.92;74.54;104029.88;5095886;28;19956;-81
2022/01/18 11:09:05;;;;;;;;;;;;;;;9.88;73.99;104016.34;5096703;28;19916;-82
2022/01/18 11:11:31;;;;;;;;;;;;;;;9.90;75.87;104015.47;5097556;28;19916;-80
2022/01/18 11:14:01;;;;;;;;;;;;;;;9.27;76.82;104014.06;5096546;28;20015;-80
2022/01/18 11:16:27;;;;;;;;;;;;;;;9.99;75.07;104010.97;5096075;28;19941;-81
2022/01/18 11:18:54;;;;;;;;;;;;;;;9.82;75.33;104006.38;5096911;28;19924;-82
2022/01/18 11:21:22;;;;;;;;;;;;;;;10.89;70.90;104002.34;5097857;28;19920;-82
2022/01/18 11:23:47;;;;;;;;;;;;;;;10.51;70.72;104002.22;5095912;28;19920;-83
2022/01/18 11:26:13;;;;;;;;;;;;;;;10.26;72.89;104003.00;5108564;28;19916;-82
2022/01/18 11:28:38;;;;;;;;;;;;;;;10.36;73.78;103998.56;5116848;28;19919;-80
2022/01/18 11:31:10;;;;;;;;;;;;;;;10.33;72.54;103998.56;5116378;28;19916;-81
2022/01/18 11:33:37;;;;;;;;;;;;;;;10.04;74.77;104007.41;5115813;28;19915;-81
2022/01/18 11:36:04;;;;;;;;;;;;;;;10.81;72.82;103998.72;5116195;28;19926;-82
2022/01/18 11:38:40;;;;;;;;;;;;;;;10.22;72.71;104009.31;5117426;28;19993;-81
2022/01/18 11:41:06;;;;;;;;;;;;;;;9.86;74.78;104008.22;5118508;28;20361;-81
2022/01/18 11:43:34;;;;;;;;;;;;;;;10.19;73.97;104001.19;5117393;28;19935;-83
2022/01/18 11:46:00;;;;;;;;;;;;;;;10.00;74.53;104004.69;5118367;28;20420;-83
2022/01/18 11:48:25;;;;;;;;;;;;;;;10.10;74.31;103996.63;5119660;28;19915;-84
2022/01/18 11:51:05;;;;;;;;;;;;;;;10.54;72.82;103995.03;5118349;28;19979;-83
2022/01/18 11:53:54;;;;;;;;;;;;;;;10.08;75.08;103992.09;5117206;28;20019;-86
2022/01/18 11:56:42;;;;;;;;;;;;;;;9.90;75.75;103995.59;5116514;28;19923;-85
2022/01/18 11:59:14;;;;;;;;;;;;;;;10.16;73.96;103979.53;5117610;28;19997;-83
2022/01/18 12:01:50;;;;;;;;;;;;;;;10.08;75.33;103989.38;5116015;28;19922;-83
2022/01/18 12:04:34;;;;;;;;;;;;;;;10.31;74.54;103983.19;5116243;28;19916;-83
2022/01/18 12:06:59;;;;;;;;;;;;;;;10.40;73.83;103991.38;5115435;28;20262;-84
2022/01/18 12:09:41;;;;;;;;;;;;;;;10.41;73.79;103975.13;5117852;28;20365;-84
2022/01/18 12:12:26;;;;;;;;;;;;;;;10.93;71.82;103968.94;5115826;28;19915;-84
2022/01/18 12:14:52;;;;;;;;;;;;;;;10.66;72.93;103977.00;5110050;28;19942;-83
2022/01/18 12:17:17;;;;;;;;;;;;;;;10.85;70.67;103972.53;5115950;28;19919;-83
2022/01/18 12:19:47;;;;;;;;;;;;;;;12.08;67.71;103968.81;5108584;28;20006;-85
2022/01/18 12:22:13;;;;;;;;;;;;;;;11.14;68.61;103970.75;5097739;28;20320;-85
2022/01/18 12:24:42;;;;;;;;;;;;;;;11.10;69.18;103973.47;5096641;28;20020;-84
2022/01/18 12:27:28;;;;;;;;;;;;;;;11.72;67.62;103970.72;5096812;28;19920;-86
2022/01/18 12:30:15;;;;;;;;;;;;;;;11.65;68.57;103970.69;5097130;28;19916;-83
2022/01/18 12:32:56;;;;;;;;;;;;;;;11.68;68.48;103970.72;5095429;28;19920;-84
2022/01/18 12:35:23;;;;;;;;;;;;;;;10.96;70.81;103968.94;5095355;28;20312;-86
2022/01/18 12:37:49;;;;;;;;;;;;;;;10.92;70.44;103971.66;5094483;28;20007;-84
2022/01/18 12:40:27;;;;;;;;;;;;;;;10.65;71.87;103976.09;5096211;28;19916;-83
2022/01/18 12:45:33;;;;;;;;;;;;;;;11.40;69.13;103966.22;5095346;28;19989;-84
2022/01/18 12:48:00;;;;;;;;;;;;;;;11.06;70.37;103963.53;5096088;28;19912;-84
2022/01/18 12:50:33;;;;;;;;;;;;;;;10.90;71.20;103952.69;5095853;28;19970;-84
2022/01/18 12:53:08;;;;;;;;;;;;;;;10.41;73.70;103956.19;5094175;28;20323;-84
2022/01/18 12:55:38;;;;;;;;;;;;;;;10.89;72.52;103945.47;5094254;28;19927;-84
2022/01/18 12:58:03;;;;;;;;;;;;;;;11.11;70.34;103945.44;5096473;28;19942;-86
2022/01/18 13:00:29;;;;;;;;;;;;;;;11.17;70.70;103940.03;5096756;28;19924;-84
2022/01/18 13:02:58;;;;;;;;;;;;;;;11.30;69.64;103947.25;5095085;28;20387;-83
2022/01/18 13:05:32;;;;;;;;;;;;;;;10.41;72.59;103949.88;5093751;28;19931;-83
2022/01/18 13:07:57;;;;;;;;;;;;;;;10.61;73.15;103949.91;5091753;28;19920;-83
2022/01/18 13:10:36;;;;;;;;;;;;;;;11.09;70.52;103950.88;5094444;28;19920;-82
2022/01/18 13:13:01;;;;;;;;;;;;;;;11.44;70.28;103940.91;5094138;28;19916;-84
2022/01/18 13:15:47;;;;;;;;;;;;;;;11.12;71.80;103942.75;5098250;28;19919;-83
2022/01/18 13:23:54;;;;;;;;;;;;;;;11.22;69.70;103931.91;5100235;28;19923;-84
2022/01/18 13:26:30;;;;;;;;;;;;;;;11.51;69.21;103934.59;5097945;28;19923;-81
2022/01/18 13:29:08;;;;;;;;;;;;;;;11.64;68.81;103939.09;5095590;28;19921;-83
2022/01/18 13:31:33;;;;;;;;;;;;;;;10.74;71.87;103934.63;5093431;28;19920;-81
2022/01/18 13:34:00;;;;;;;;;;;;;;;11.55;69.63;103930.97;5097837;28;19923;-82
2022/01/18 13:36:29;;;;;;;;;;;;;;;11.55;69.60;103925.56;5097296;28;20442;-82
2022/01/18 13:38:54;;;;;;;;;;;;;;;11.44;67.12;103921.94;5098608;28;20027;-84
2022/01/18 13:41:20;;;;;;;;;;;;;;;11.63;68.57;103915.56;5098776;28;19963;-85
2022/01/18 13:43:47;;;;;;;;;;;;;;;12.38;63.90;103908.06;5099422;28;20010;-84
2022/01/18 13:46:21;;;;;;;;;;;;;;;11.81;67.21;103911.00;5099502;28;20445;-83
2022/01/18 13:48:46;;;;;;;;;;;;;;;11.53;66.65;103909.28;5098216;28;19920;-81
2022/01/18 13:51:15;;;;;;;;;;;;;;;11.28;69.08;103903.00;5092863;28;20367;-79
2022/01/18 13:53:41;;;;;;;;;;;;;;;11.66;68.00;103909.25;5090139;28;19942;-81
2022/01/18 13:56:15;;;;;;;;;;;;;;;10.89;71.31;103903.94;5078895;28;20406;-81
2022/01/18 13:58:42;;;;;;;;;;;;;;;11.91;67.67;103898.28;5077397;28;19947;-81
2022/01/18 14:01:17;;;;;;;;;;;;;;;11.95;66.38;103898.31;5077698;28;19942;-81
2022/01/18 14:03:46;;;;;;;;;;;;;;;12.32;66.56;103890.00;5077674;28;20385;-81